»·PEaware :: BAW207 EGLL-KMIA

BAW207 :: EGLL-KMIA

FLIGHT INFORMATION

Flight Status: Arrived
Operator:
British Airways
More flights by this operator :: More flights under this callsign
Pilot: Anonymous 13363 (13363)
Aircraft: BOEING 747-400 (WINGLETS)
(B744)
More flights by this aircraft type
Origin: EGLL Heathrow
United Kingdom
Destination: KMIA Miami Intl
United States
More flights between these airports :: More routes between these airports
Route: CPT4K CPT UL9 GAVGO UL18 DIKAS UL9 SLANY MALOT NATF TUDEP N396A ALLEX ACK LYNUS VS8 CUMBY JAINS SNSBK ANNEY4
File this flight plan on PilotEdge
Remarks:
Altitude:
(Current/Filed)
39,000ft
Speed:
(Current/Filed)
482kts
Departed: 18-Mar-18 04:01 PM
Arrived: 18-Mar-18 05:32 PM
Distance/Time
Traveled:
3836nm/1:31
Distance/Time
To Go:
Arrived

Flight Plot

Page will automatically refresh every two minutes.

Flight plan parsing failed; only flown route is shown


Map Options




Map Legend


Flown Route
Filed Route
Departure Airport
Arrival Airport
Navaid (VOR, NDB)
Fix

Horizontal Profiles

Position Reports

Time Latitude Longitude Heading Altitude Ground
Speed
18-Mar-18 15:59 35.415232 -74.369568 218 39050ft 512kts
18-Mar-18 16:00 35.290822 -74.454557 218 39049ft 512kts
18-Mar-18 16:01 35.187078 -74.525198 218 39036ft 513kts
18-Mar-18 16:02 35.062087 -74.610025 218 39035ft 513kts
18-Mar-18 16:03 34.937419 -74.694344 218 39035ft 513kts
18-Mar-18 16:04 34.812689 -74.778409 218 39035ft 513kts
18-Mar-18 16:05 34.687438 -74.862523 218 39036ft 513kts
18-Mar-18 16:06 34.562529 -74.946120 218 39036ft 513kts
18-Mar-18 16:07 34.478197 -75.002396 218 39036ft 513kts
18-Mar-18 16:08 34.463635 -75.012100 218 39036ft 513kts
18-Mar-18 16:09 34.338619 -75.095253 218 39035ft 514kts
18-Mar-18 16:10 34.213193 -75.178391 219 39033ft 515kts
18-Mar-18 16:11 34.087506 -75.261419 219 39560ft 513kts
18-Mar-18 16:12 33.962666 -75.343589 219 40044ft 511kts
18-Mar-18 16:13 33.838230 -75.425251 219 40035ft 510kts
18-Mar-18 16:14 33.713359 -75.506910 219 40034ft 510kts
18-Mar-18 16:15 33.588902 -75.588028 219 40021ft 509kts
18-Mar-18 16:16 33.464381 -75.668919 219 40026ft 510kts
18-Mar-18 16:17 33.339392 -75.749845 219 40025ft 510kts
18-Mar-18 16:18 33.214757 -75.830278 219 40024ft 510kts
18-Mar-18 16:19 33.090100 -75.910463 219 40022ft 509kts
18-Mar-18 16:20 32.965028 -75.990653 219 40020ft 509kts
18-Mar-18 16:21 32.840537 -76.070214 220 40018ft 508kts
18-Mar-18 16:22 32.715768 -76.149699 220 40019ft 508kts
18-Mar-18 16:23 32.591427 -76.228659 220 40017ft 507kts
18-Mar-18 16:24 32.467017 -76.307411 220 40018ft 507kts
18-Mar-18 16:25 32.342220 -76.386160 220 40008ft 507kts
18-Mar-18 16:26 32.217753 -76.464454 220 40002ft 507kts
18-Mar-18 16:27 32.093185 -76.542568 220 40000ft 507kts
18-Mar-18 16:28 31.968144 -76.620735 220 40011ft 507kts
18-Mar-18 16:29 31.843619 -76.698338 220 40010ft 507kts
18-Mar-18 16:30 31.719041 -76.775742 220 40010ft 507kts
18-Mar-18 16:31 31.594150 -76.853274 220 40009ft 506kts
18-Mar-18 16:32 31.469492 -76.930179 219 40009ft 508kts
18-Mar-18 16:33 31.344177 -77.006871 217 40007ft 511kts
18-Mar-18 16:34 31.213515 -77.075617 216 40008ft 516kts
18-Mar-18 16:35 31.082781 -77.144097 216 40016ft 515kts
18-Mar-18 16:36 30.952431 -77.212834 216 40016ft 514kts
18-Mar-18 16:37 30.821669 -77.281509 216 40016ft 515kts
18-Mar-18 16:38 30.691234 -77.349739 216 40007ft 514kts
18-Mar-18 16:39 30.560765 -77.417776 215 40003ft 514kts
18-Mar-18 16:40 30.429871 -77.485829 215 40008ft 514kts
18-Mar-18 16:41 30.299402 -77.553462 215 40010ft 514kts
18-Mar-18 16:42 30.169310 -77.620702 215 40001ft 510kts
18-Mar-18 16:43 30.039868 -77.687414 215 40002ft 508kts
18-Mar-18 16:44 29.910850 -77.753716 215 40007ft 508kts
18-Mar-18 16:45 29.781766 -77.819864 215 40022ft 508kts
18-Mar-18 16:46 29.652240 -77.886050 215 40022ft 508kts
18-Mar-18 16:47 29.523059 -77.951876 215 40022ft 508kts
18-Mar-18 16:48 29.393475 -78.017720 215 40021ft 507kts
18-Mar-18 16:49 29.264699 -78.082970 215 40021ft 507kts
18-Mar-18 16:50 29.135811 -78.148100 214 40020ft 507kts
18-Mar-18 16:51 29.006457 -78.213281 214 40027ft 507kts
18-Mar-18 16:52 28.877569 -78.278054 214 40027ft 505kts
18-Mar-18 16:53 28.748971 -78.342502 214 40027ft 505kts
18-Mar-18 16:54 28.619863 -78.407033 214 40043ft 506kts
18-Mar-18 16:55 28.491053 -78.471241 214 40033ft 506kts
18-Mar-18 16:56 28.361786 -78.535504 214 40033ft 506kts
18-Mar-18 16:57 28.233227 -78.599247 214 40033ft 504kts
18-Mar-18 16:58 28.104699 -78.662806 214 40034ft 504kts
18-Mar-18 16:59 27.975780 -78.726398 213 40052ft 504kts
18-Mar-18 17:00 27.887520 -78.769829 213 40057ft 503kts
18-Mar-18 17:01 27.887520 -78.769829 213 40057ft 503kts
18-Mar-18 17:02 27.791746 -78.816873 213 40058ft 503kts
18-Mar-18 17:03 27.663549 -78.879705 213 40059ft 503kts
18-Mar-18 17:04 27.535437 -78.942333 213 40059ft 501kts
18-Mar-18 17:05 27.407166 -79.004881 213 40059ft 501kts
18-Mar-18 17:06 27.279201 -79.067122 213 40059ft 501kts
18-Mar-18 17:07 27.150819 -79.129408 213 40062ft 502kts
18-Mar-18 17:08 27.022746 -79.191390 213 40061ft 502kts
18-Mar-18 17:09 26.910250 -79.245707 213 40061ft 500kts
18-Mar-18 17:10 26.782324 -79.307406 213 40053ft 493kts
18-Mar-18 17:11 26.659181 -79.366595 213 37237ft 488kts
18-Mar-18 17:12 26.536028 -79.429164 226 34020ft 466kts
18-Mar-18 17:13 26.462204 -79.543866 248 30187ft 471kts
18-Mar-18 17:14 26.403180 -79.676427 249 25970ft 480kts
18-Mar-18 17:15 26.346021 -79.806925 248 22463ft 455kts
18-Mar-18 17:16 26.291246 -79.930218 248 19168ft 434kts
18-Mar-18 17:17 26.209737 -80.024208 207 15692ft 450kts
18-Mar-18 17:18 26.089115 -80.059882 198 12469ft 440kts
18-Mar-18 17:19 25.976562 -80.091400 197 10867ft 372kts
18-Mar-18 17:20 25.887714 -80.116383 197 10333ft 292kts
18-Mar-18 17:21 25.811450 -80.137761 196 9434ft 289kts
18-Mar-18 17:22 25.757319 -80.190401 251 7901ft 267kts
18-Mar-18 17:23 25.733427 -80.270099 253 5419ft 275kts
18-Mar-18 17:24 25.715096 -80.353058 263 3485ft 267kts
18-Mar-18 17:25 25.710148 -80.425957 264 3001ft 206kts
18-Mar-18 17:26 25.735546 -80.468065 8 2992ft 197kts
18-Mar-18 17:27 25.776252 -80.432620 47 2366ft 176kts
18-Mar-18 17:28 25.783322 -80.386321 90 1333ft 147kts
18-Mar-18 17:29 25.785037 -80.341171 90 450ft 146kts
18-Mar-18 17:30 25.786785 -80.298186 87 22ft 108kts
18-Mar-18 17:31 25.789559 -80.285589 33 21ft 18kts
18-Mar-18 17:32 25.792221 -80.284120 298 21ft 8kts
18-Mar-18 17:33 25.793314 -80.285188 88 21ft 6kts
18-Mar-18 17:34 25.793384 -80.283557 86 21ft 4kts
18-Mar-18 17:35 25.794085 -80.283490 327 21ft 2kts
18-Mar-18 17:36 25.794206 -80.283572 328 21ft 0kts
18-Mar-18 17:37 25.794206 -80.283572 328 21ft 0kts
18-Mar-18 17:38 25.794206 -80.283572 328 21ft 0kts
18-Mar-18 17:39 25.794206 -80.283572 328 21ft 0kts
18-Mar-18 17:40 25.794206 -80.283572 328 21ft 0kts
18-Mar-18 17:41 25.794206 -80.283572 328 21ft 0kts
18-Mar-18 17:42 25.794206 -80.283572 328 21ft 0kts
18-Mar-18 17:43 25.794206 -80.283572 328 21ft 0kts
18-Mar-18 17:44 25.794206 -80.283572 328 21ft 0kts
18-Mar-18 17:45 25.794206 -80.283572 328 21ft 0kts
18-Mar-18 17:46 25.794206 -80.283572 328 21ft 0kts

Navigation Log

Ident Type
Flight plan parsing failed, navigation log unavailable